createdAt,value
2022-08-10T00:00:55.900Z,1.85
2022-08-10T00:03:22.586Z,1.92
2022-08-10T00:05:52.816Z,1.77
2022-08-10T00:08:23.593Z,1.63
2022-08-10T00:10:55.392Z,1.92
2022-08-10T00:13:22.989Z,1.90
2022-08-10T00:15:53.918Z,1.95
2022-08-10T00:18:35.062Z,2.05
2022-08-10T00:21:07.279Z,1.67
2022-08-10T00:23:34.890Z,1.70
2022-08-10T00:26:02.192Z,2.30
2022-08-10T00:28:28.797Z,1.70
2022-08-10T00:30:55.507Z,1.80
2022-08-10T00:33:22.151Z,1.83
2022-08-10T00:35:49.182Z,1.63
2022-08-10T00:38:16.086Z,1.83
2022-08-10T00:40:42.751Z,1.80
2022-08-10T00:43:09.535Z,1.85
2022-08-10T00:45:36.702Z,2.33
2022-08-10T00:48:04.031Z,1.77
2022-08-10T00:50:31.091Z,1.73
2022-08-10T00:52:57.800Z,1.65
2022-08-10T00:55:24.705Z,1.60
2022-08-10T00:57:54.871Z,1.63
2022-08-10T01:00:23.154Z,1.98
2022-08-10T01:02:49.752Z,2.10
2022-08-10T01:05:16.538Z,1.60
2022-08-10T01:07:56.697Z,2.13
2022-08-10T01:10:37.592Z,2.30
2022-08-10T01:14:08.896Z,1.85
2022-08-10T01:16:50.174Z,1.85
2022-08-10T01:19:46.839Z,1.92
2022-08-10T01:22:41.379Z,1.83
2022-08-10T01:25:11.301Z,1.88
2022-08-10T01:27:57.522Z,2.08
2022-08-10T01:30:28.642Z,2.35
2022-08-10T01:33:08.629Z,1.90
2022-08-10T01:35:45.555Z,2.10
2022-08-10T01:38:20.944Z,2.03
2022-08-10T01:40:54.887Z,1.73
2022-08-10T01:43:24.448Z,2.22
2022-08-10T01:45:55.445Z,2.17
2022-08-10T01:48:28.281Z,1.65
2022-08-10T01:51:09.322Z,3.00
2022-08-10T01:53:41.866Z,1.85
2022-08-10T01:56:12.245Z,2.00
2022-08-10T01:58:39.724Z,1.85
2022-08-10T02:01:09.735Z,2.00
2022-08-10T02:04:05.165Z,2.00
2022-08-10T02:06:30.106Z,2.15
2022-08-10T02:09:06.210Z,2.05
2022-08-10T02:12:07.784Z,2.42
2022-08-10T02:14:23.767Z,2.30
2022-08-10T02:19:21.962Z,2.10
2022-08-10T02:22:37.137Z,2.17
2022-08-10T02:24:40.923Z,1.85
2022-08-10T02:27:09.214Z,2.55
2022-08-10T02:29:38.005Z,2.03
2022-08-10T02:32:10.354Z,2.22
2022-08-10T02:34:39.240Z,2.85
2022-08-10T02:37:10.786Z,2.50
2022-08-10T02:39:37.890Z,2.13
2022-08-10T02:45:13.652Z,2.53
2022-08-10T02:45:21.566Z,2.45
2022-08-10T02:48:01.600Z,2.47
2022-08-10T02:50:36.701Z,2.40
2022-08-10T02:53:08.185Z,2.63
2022-08-10T02:56:06.476Z,2.60
2022-08-10T02:58:58.963Z,2.38
2022-08-10T03:01:32.294Z,2.50
2022-08-10T03:04:07.654Z,2.40
2022-08-10T03:06:39.882Z,2.50
2022-08-10T03:09:08.550Z,2.53
2022-08-10T03:12:36.209Z,2.40
2022-08-10T03:14:24.358Z,2.40
2022-08-10T03:16:54.411Z,2.80
2022-08-10T03:20:34.314Z,2.50
2022-08-10T03:22:10.257Z,2.80
2022-08-10T03:27:05.048Z,2.33
2022-08-10T03:30:28.119Z,2.70
2022-08-10T03:32:20.747Z,2.67
2022-08-10T03:34:48.226Z,2.22
2022-08-10T03:37:14.876Z,2.30
2022-08-10T03:39:41.525Z,2.50
2022-08-10T03:42:12.923Z,2.30
2022-08-10T03:44:43.047Z,2.78
2022-08-10T03:47:15.285Z,2.85
2022-08-10T03:49:46.772Z,3.00
2022-08-10T03:52:15.186Z,2.70
2022-08-10T03:54:42.812Z,2.83
2022-08-10T03:57:09.925Z,3.00
2022-08-10T03:59:37.023Z,2.83
2022-08-10T04:02:45.980Z,3.33
2022-08-10T04:04:53.229Z,2.92
2022-08-10T04:07:19.777Z,3.35
2022-08-10T04:09:54.889Z,3.45
2022-08-10T04:12:23.480Z,3.00
2022-08-10T04:14:52.925Z,3.03
2022-08-10T04:18:03.038Z,3.17
2022-08-10T04:20:25.610Z,3.00
2022-08-10T04:22:57.642Z,3.00
2022-08-10T04:25:27.904Z,2.97
2022-08-10T04:27:55.260Z,3.28
2022-08-10T04:30:22.726Z,3.05
2022-08-10T04:32:53.627Z,3.17
2022-08-10T04:35:22.792Z,3.17
2022-08-10T04:37:51.071Z,3.20
2022-08-10T04:40:28.798Z,3.38
2022-08-10T04:43:11.723Z,3.72
2022-08-10T04:45:47.587Z,3.55
2022-08-10T04:48:41.634Z,3.40
2022-08-10T04:51:17.940Z,3.72
2022-08-10T04:54:04.706Z,3.75
2022-08-10T04:56:39.074Z,3.45
2022-08-10T04:59:06.993Z,3.63
2022-08-10T05:02:22.059Z,4.05
2022-08-10T05:04:36.307Z,3.55
2022-08-10T05:07:10.859Z,3.83
2022-08-10T05:10:01.154Z,4.10
2022-08-10T05:12:26.134Z,3.85
2022-08-10T05:14:53.857Z,4.05
2022-08-10T05:20:03.031Z,4.70
2022-08-10T05:22:36.272Z,4.30
2022-08-10T05:25:04.810Z,5.07
2022-08-10T05:27:31.382Z,4.18
2022-08-10T05:30:01.486Z,4.07
2022-08-10T05:32:30.004Z,4.40
2022-08-10T05:34:56.731Z,4.13
2022-08-10T05:38:08.898Z,4.18
2022-08-10T05:40:12.257Z,4.80
2022-08-10T05:42:40.900Z,4.45
2022-08-10T05:45:15.837Z,4.30
2022-08-10T05:48:54.221Z,4.40
2022-08-10T05:50:31.176Z,4.05
2022-08-10T05:52:58.412Z,4.70
2022-08-10T05:55:31.101Z,4.35
2022-08-10T05:57:59.889Z,4.32
2022-08-10T06:00:36.728Z,4.13
2022-08-10T06:03:08.467Z,4.22
2022-08-10T06:05:39.649Z,4.18
2022-08-10T06:08:09.572Z,4.20
2022-08-10T06:10:50.874Z,4.00
2022-08-10T06:16:33.062Z,3.45
2022-08-10T06:19:02.081Z,4.10
2022-08-10T06:21:28.879Z,3.97
2022-08-10T06:23:59.419Z,3.50
2022-08-10T06:26:25.921Z,3.85
2022-08-10T06:29:03.145Z,3.95
2022-08-10T06:31:48.184Z,3.70
2022-08-10T06:34:20.828Z,3.50
2022-08-10T06:36:48.538Z,3.67
2022-08-10T06:39:34.161Z,3.37
2022-08-10T06:42:15.892Z,3.45
2022-08-10T06:44:53.718Z,3.00
2022-08-10T06:47:23.520Z,2.95
2022-08-10T06:49:59.898Z,4.00
2022-08-10T06:52:28.602Z,3.25
2022-08-10T06:54:58.441Z,3.05
2022-08-10T06:57:26.534Z,3.40
2022-08-10T06:59:54.293Z,3.55
2022-08-10T07:02:32.224Z,2.85
2022-08-10T07:05:08.634Z,3.35
2022-08-10T07:07:39.162Z,3.55
2022-08-10T07:10:07.149Z,2.80
2022-08-10T07:12:37.077Z,3.10
2022-08-10T07:15:06.987Z,3.22
2022-08-10T07:17:39.557Z,3.00
2022-08-10T07:20:11.258Z,3.22
2022-08-10T07:23:08.153Z,2.63
2022-08-10T07:25:28.344Z,2.80
2022-08-10T07:28:00.859Z,2.95
2022-08-10T07:30:36.768Z,2.72
2022-08-10T07:33:05.277Z,2.70
2022-08-10T07:38:13.797Z,2.20
2022-08-10T07:40:42.243Z,2.28
2022-08-10T07:45:38.984Z,2.03
2022-08-10T07:48:11.694Z,1.80
2022-08-10T07:50:40.455Z,2.03
2022-08-10T07:53:12.282Z,1.75
2022-08-10T07:56:03.448Z,2.00
2022-08-10T07:58:38.431Z,1.75
2022-08-10T08:01:05.181Z,1.83
2022-08-10T08:03:32.934Z,1.90
2022-08-10T08:06:05.314Z,1.88
2022-08-10T08:08:40.583Z,1.60
2022-08-10T08:11:09.145Z,1.50
2022-08-10T08:13:53.817Z,1.75
2022-08-10T08:16:22.349Z,1.83
2022-08-10T08:19:16.475Z,1.80
2022-08-10T08:24:04.648Z,1.65
2022-08-10T08:24:32.561Z,1.80
2022-08-10T08:27:02.810Z,1.92
2022-08-10T08:29:33.302Z,1.75
2022-08-10T08:32:03.233Z,1.75
2022-08-10T08:34:37.493Z,1.70
2022-08-10T08:37:05.617Z,1.80
2022-08-10T08:39:33.566Z,1.85
2022-08-10T08:42:23.455Z,2.10
2022-08-10T08:45:07.817Z,1.75
2022-08-10T08:48:03.891Z,1.90
2022-08-10T08:50:57.363Z,1.70
2022-08-10T08:54:00.914Z,1.83
2022-08-10T08:56:35.855Z,1.73
2022-08-10T08:59:19.567Z,1.77
2022-08-10T09:02:11.696Z,1.90
2022-08-10T09:04:55.723Z,1.88
2022-08-10T09:08:02.887Z,1.95
2022-08-10T09:11:00.225Z,2.30
2022-08-10T09:13:41.287Z,2.20
2022-08-10T09:16:16.841Z,2.35
2022-08-10T09:19:07.823Z,2.40
2022-08-10T09:21:59.163Z,2.20
2022-08-10T09:24:51.956Z,2.00
2022-08-10T09:27:21.730Z,2.30
2022-08-10T09:30:02.735Z,2.30
2022-08-10T09:35:39.385Z,2.20
2022-08-10T09:36:29.832Z,2.55
2022-08-10T09:38:36.107Z,2.03
2022-08-10T09:41:13.164Z,2.40
2022-08-10T09:43:59.110Z,2.78
2022-08-10T09:46:44.305Z,2.42
2022-08-10T09:49:54.069Z,2.20
2022-08-10T09:52:24.019Z,2.00
2022-08-10T09:54:53.541Z,2.38
2022-08-10T09:57:44.251Z,2.60
2022-08-10T10:00:16.059Z,2.30
2022-08-10T10:03:07.422Z,2.33
2022-08-10T10:05:52.215Z,2.78
2022-08-10T10:08:21.989Z,2.00
2022-08-10T10:10:51.643Z,2.60
2022-08-10T10:14:03.929Z,1.90
2022-08-10T10:16:41.934Z,2.30
2022-08-10T10:19:27.221Z,2.05
2022-08-10T10:21:56.849Z,2.10
2022-08-10T10:24:43.680Z,2.03
2022-08-10T10:27:38.434Z,1.92
2022-08-10T10:30:09.672Z,2.10
2022-08-10T10:33:07.597Z,2.13
2022-08-10T10:35:55.346Z,2.22
2022-08-10T10:38:27.015Z,2.08
2022-08-10T10:41:03.764Z,2.00
2022-08-10T10:44:01.060Z,2.70
2022-08-10T10:49:27.919Z,2.08
2022-08-10T10:52:09.168Z,2.20
2022-08-10T10:54:44.848Z,2.13
2022-08-10T10:57:58.516Z,1.90
2022-08-10T11:00:13.093Z,2.17
2022-08-10T11:02:58.907Z,2.28
2022-08-10T11:05:31.901Z,1.92
2022-08-10T11:08:33.918Z,2.03
2022-08-10T11:11:20.439Z,2.08
2022-08-10T11:14:29.096Z,1.90
2022-08-10T11:17:09.774Z,1.48
2022-08-10T11:20:03.418Z,1.80
2022-08-10T11:22:40.217Z,1.63
2022-08-10T11:25:30.360Z,2.10
2022-08-10T11:28:29.175Z,1.95
2022-08-10T11:30:55.605Z,1.80
2022-08-10T11:34:11.245Z,1.80
2022-08-10T11:37:01.101Z,2.00
2022-08-10T11:39:49.971Z,2.22
2022-08-10T11:43:00.711Z,1.80
2022-08-10T11:45:32.098Z,2.22
2022-08-10T11:48:52.931Z,1.98
2022-08-10T11:51:35.612Z,1.70
2022-08-10T11:54:14.550Z,1.83
2022-08-10T11:56:50.670Z,1.83
2022-08-10T11:59:37.368Z,1.63
2022-08-10T12:02:06.393Z,1.55
2022-08-10T12:04:35.112Z,1.40
2022-08-10T12:10:02.210Z,1.83
2022-08-10T12:10:04.616Z,1.58
2022-08-10T12:12:46.968Z,1.70
2022-08-10T12:15:21.723Z,1.50
2022-08-10T12:17:55.950Z,1.40
2022-08-10T12:20:31.366Z,1.48
2022-08-10T12:23:07.998Z,1.55
2022-08-10T12:25:58.465Z,2.17
2022-08-10T12:28:50.527Z,1.60
2022-08-10T12:31:22.990Z,1.70
2022-08-10T12:34:04.718Z,1.90
2022-08-10T12:36:41.855Z,1.77
2022-08-10T12:39:26.917Z,1.75
2022-08-10T12:42:10.811Z,1.70
2022-08-10T12:44:50.431Z,1.80
2022-08-10T12:47:37.153Z,1.70
2022-08-10T12:50:20.058Z,1.55
2022-08-10T12:53:06.790Z,1.50
2022-08-10T12:55:34.519Z,1.50
2022-08-10T12:58:05.473Z,1.50
2022-08-10T13:01:15.284Z,1.48
2022-08-10T13:04:23.828Z,1.35
2022-08-10T13:06:34.167Z,1.50
2022-08-10T13:09:11.083Z,1.88
2022-08-10T13:12:44.271Z,1.70
2022-08-10T13:14:41.733Z,1.80
2022-08-10T13:17:09.821Z,1.65
2022-08-10T13:19:55.043Z,1.50
2022-08-10T13:22:27.482Z,1.65
2022-08-10T13:24:58.736Z,1.90
2022-08-10T13:28:01.408Z,1.70
2022-08-10T13:30:16.694Z,1.45
2022-08-10T13:32:49.601Z,1.33
2022-08-10T13:35:19.608Z,1.65
2022-08-10T13:37:48.337Z,1.35
2022-08-10T13:40:19.085Z,1.13
2022-08-10T13:42:47.800Z,1.40
2022-08-10T13:45:17.900Z,1.70
2022-08-10T13:47:50.162Z,1.23
2022-08-10T13:50:43.828Z,1.33
2022-08-10T13:53:15.531Z,1.33
2022-08-10T13:55:55.380Z,1.27
2022-08-10T13:58:30.420Z,1.10
2022-08-10T14:00:59.306Z,1.27
2022-08-10T14:03:28.173Z,1.30
2022-08-10T14:05:58.292Z,1.40
2022-08-10T14:08:31.200Z,1.20
2022-08-10T14:11:12.347Z,1.20
2022-08-10T14:14:07.579Z,1.30
2022-08-10T14:16:34.915Z,1.30
2022-08-10T14:19:10.306Z,1.23
2022-08-10T14:21:40.963Z,1.35
2022-08-10T14:24:20.306Z,1.23
2022-08-10T14:26:48.429Z,1.63
2022-08-10T14:29:18.953Z,1.70
2022-08-10T14:32:01.157Z,1.20
2022-08-10T14:36:16.444Z,1.40
2022-08-10T14:37:31.225Z,1.48
2022-08-10T14:40:08.062Z,1.40
2022-08-10T14:42:44.640Z,1.40
2022-08-10T14:45:20.155Z,1.45
2022-08-10T14:47:55.944Z,1.50
2022-08-10T14:50:32.530Z,1.30
2022-08-10T14:53:26.497Z,1.20
2022-08-10T14:55:58.670Z,2.15
2022-08-10T14:58:31.070Z,1.27
2022-08-10T15:00:58.609Z,1.30
2022-08-10T15:04:02.302Z,1.45
2022-08-10T15:06:19.024Z,1.60
2022-08-10T15:08:47.611Z,1.30
2022-08-10T15:12:13.991Z,1.27
2022-08-10T15:14:32.127Z,1.30
2022-08-10T15:16:55.206Z,1.25
2022-08-10T15:20:03.459Z,1.40
2022-08-10T15:22:36.609Z,1.40
2022-08-10T15:25:16.008Z,1.58
2022-08-10T15:27:53.474Z,1.40
2022-08-10T15:30:30.375Z,2.00
2022-08-10T15:33:59.310Z,1.60
2022-08-10T15:36:33.396Z,1.45
2022-08-10T15:39:02.849Z,1.48
2022-08-10T15:41:58.915Z,1.20
2022-08-10T15:44:38.272Z,1.35
2022-08-10T15:49:50.120Z,1.15
2022-08-10T15:53:00.044Z,1.40
2022-08-10T15:55:43.030Z,1.90
2022-08-10T15:58:38.790Z,1.75
2022-08-10T16:02:04.622Z,1.98
2022-08-10T16:04:36.754Z,1.52
2022-08-10T16:07:10.531Z,1.60
2022-08-10T16:10:22.540Z,1.38
2022-08-10T16:12:36.707Z,1.27
2022-08-10T16:15:09.815Z,1.60
2022-08-10T16:17:54.293Z,1.40
2022-08-10T16:20:31.279Z,1.50
2022-08-10T16:23:02.152Z,1.40
2022-08-10T16:25:49.778Z,1.63
2022-08-10T16:28:23.335Z,1.33
2022-08-10T16:30:53.094Z,1.58
2022-08-10T16:33:53.050Z,1.60
2022-08-10T16:36:16.664Z,1.45
2022-08-10T16:38:46.934Z,1.42
2022-08-10T16:42:00.805Z,1.30
2022-08-10T16:44:04.002Z,1.60
2022-08-10T16:46:32.606Z,1.20
2022-08-10T16:49:01.560Z,1.30
2022-08-10T16:51:28.583Z,1.40
2022-08-10T16:53:58.954Z,1.08
2022-08-10T16:56:32.625Z,1.38
2022-08-10T16:59:01.108Z,1.60
2022-08-10T17:01:35.950Z,1.80
2022-08-10T17:04:09.928Z,1.40
2022-08-10T17:06:43.047Z,1.60
2022-08-10T17:09:16.876Z,1.75
2022-08-10T17:11:47.629Z,1.40
2022-08-10T17:14:14.642Z,1.20
2022-08-10T17:16:44.177Z,1.80
2022-08-10T17:19:14.269Z,1.45
2022-08-10T17:21:51.147Z,1.60
2022-08-10T17:24:22.723Z,1.40
2022-08-10T17:26:51.074Z,1.52
2022-08-10T17:29:58.112Z,1.60
2022-08-10T17:32:20.675Z,1.38
2022-08-10T17:34:52.548Z,1.50
2022-08-10T17:37:22.558Z,1.70
2022-08-10T17:39:58.778Z,1.48
2022-08-10T17:42:25.604Z,1.83
2022-08-10T17:44:54.267Z,1.25
2022-08-10T17:47:26.316Z,1.70
2022-08-10T17:49:58.653Z,1.65
2022-08-10T17:52:29.088Z,1.48
2022-08-10T17:55:00.881Z,1.85
2022-08-10T17:57:32.793Z,1.80
2022-08-10T18:00:01.964Z,1.95
2022-08-10T18:02:36.491Z,1.80
2022-08-10T18:05:03.845Z,2.00
2022-08-10T18:07:36.000Z,1.70
2022-08-10T18:10:05.387Z,1.83
2022-08-10T18:12:42.800Z,1.63
2022-08-10T18:15:13.642Z,1.80
2022-08-10T18:17:44.713Z,1.90
2022-08-10T18:20:13.062Z,1.85
2022-08-10T18:25:18.344Z,1.60
2022-08-10T18:28:01.304Z,1.77
2022-08-10T18:30:36.203Z,1.85
2022-08-10T18:33:08.633Z,1.80
2022-08-10T18:35:35.650Z,1.67
2022-08-10T18:38:04.890Z,1.80
2022-08-10T18:40:36.554Z,1.70
2022-08-10T18:44:04.465Z,1.75
2022-08-10T18:45:56.880Z,2.00
2022-08-10T18:48:33.212Z,1.88
2022-08-10T18:51:06.145Z,1.92
2022-08-10T18:53:47.908Z,2.53
2022-08-10T18:56:20.869Z,1.85
2022-08-10T18:59:18.654Z,2.30
2022-08-10T19:02:07.125Z,1.88
2022-08-10T19:05:03.378Z,1.70
2022-08-10T19:07:57.276Z,1.88
2022-08-10T19:10:47.052Z,1.90
2022-08-10T19:13:25.333Z,2.00
2022-08-10T19:18:32.280Z,2.00
2022-08-10T19:21:16.320Z,1.98
2022-08-10T19:24:02.941Z,1.80
2022-08-10T19:26:43.817Z,1.75
2022-08-10T19:30:09.786Z,1.98
2022-08-10T19:32:59.612Z,2.30
2022-08-10T19:36:03.673Z,1.80
2022-08-10T19:38:50.491Z,1.70
2022-08-10T19:41:41.775Z,1.50
2022-08-10T19:44:35.436Z,1.85
2022-08-10T19:47:16.993Z,1.92
2022-08-10T19:50:09.233Z,2.03
2022-08-10T19:53:06.014Z,2.00
2022-08-10T19:55:41.583Z,2.08
2022-08-10T19:58:20.051Z,1.67
2022-08-10T20:01:02.320Z,2.25
2022-08-10T20:03:47.148Z,2.95
2022-08-10T20:06:20.569Z,2.50
2022-08-10T20:09:02.363Z,2.10
2022-08-10T20:11:50.059Z,2.00
2022-08-10T20:14:30.499Z,2.47
2022-08-10T20:17:13.335Z,2.15
2022-08-10T20:20:04.284Z,2.25
2022-08-10T20:22:44.631Z,3.50
2022-08-10T20:25:20.805Z,2.65
2022-08-10T20:27:59.599Z,2.03
2022-08-10T20:30:32.778Z,2.45
2022-08-10T20:33:09.496Z,2.10
2022-08-10T20:35:53.752Z,2.30
2022-08-10T20:38:47.257Z,1.90
2022-08-10T20:41:46.013Z,1.83
2022-08-10T20:44:28.266Z,2.40
2022-08-10T20:47:02.806Z,2.38
2022-08-10T20:49:39.475Z,1.80
2022-08-10T20:52:07.803Z,1.90
2022-08-10T20:54:40.429Z,1.63
2022-08-10T20:58:04.423Z,1.90
2022-08-10T21:00:23.242Z,2.60
2022-08-10T21:03:07.121Z,2.00
2022-08-10T21:05:40.591Z,1.90
2022-08-10T21:08:35.101Z,3.08
2022-08-10T21:11:20.818Z,3.10
2022-08-10T21:14:32.368Z,2.40
2022-08-10T21:17:04.615Z,1.77
2022-08-10T21:19:40.260Z,2.25
2022-08-10T21:22:29.324Z,1.90
2022-08-10T21:25:02.989Z,1.67
2022-08-10T21:27:57.685Z,1.80
2022-08-10T21:30:36.162Z,1.42
2022-08-10T21:33:17.761Z,1.70
2022-08-10T21:35:52.089Z,1.58
2022-08-10T21:38:39.914Z,2.20
2022-08-10T21:41:57.072Z,2.00
2022-08-10T21:45:17.041Z,1.90
2022-08-10T21:48:18.517Z,1.73
2022-08-10T21:54:42.721Z,2.08
2022-08-10T21:57:58.794Z,2.30
2022-08-10T22:00:44.110Z,2.00
2022-08-10T22:03:39.939Z,2.40
2022-08-10T22:06:27.815Z,1.92
2022-08-10T22:09:21.878Z,2.00
2022-08-10T22:12:25.096Z,2.13
2022-08-10T22:15:24.044Z,1.80
2022-08-10T22:18:31.287Z,1.90
2022-08-10T22:21:45.141Z,1.85
2022-08-10T22:25:05.297Z,2.08
2022-08-10T22:28:02.164Z,2.40
2022-08-10T22:31:26.877Z,1.98
2022-08-10T22:31:27.736Z,2.00
2022-08-10T22:34:15.597Z,1.98
2022-08-10T22:37:11.639Z,1.90
2022-08-10T22:40:17.127Z,1.92
2022-08-10T22:43:10.278Z,1.58
2022-08-10T22:46:03.198Z,2.00
2022-08-10T22:48:48.478Z,1.95
2022-08-10T22:51:22.957Z,1.52
2022-08-10T22:54:31.471Z,1.75
2022-08-10T22:57:19.544Z,2.20
2022-08-10T22:59:47.342Z,2.00
2022-08-10T23:02:29.874Z,1.88
2022-08-10T23:05:05.549Z,1.60
2022-08-10T23:07:46.377Z,1.77
2022-08-10T23:10:15.645Z,1.58
2022-08-10T23:12:55.045Z,1.80
2022-08-10T23:15:51.902Z,2.58
2022-08-10T23:19:04.539Z,2.10
2022-08-10T23:22:01.662Z,1.80
2022-08-10T23:24:48.737Z,1.80
2022-08-10T23:27:37.814Z,1.40
2022-08-10T23:30:10.547Z,1.88
2022-08-10T23:32:46.286Z,1.80
2022-08-10T23:36:04.585Z,1.75
2022-08-10T23:38:08.000Z,1.85
2022-08-10T23:40:36.216Z,1.88
2022-08-10T23:43:04.813Z,1.67
2022-08-10T23:48:27.388Z,1.50
2022-08-10T23:50:59.866Z,2.15
2022-08-10T23:53:30.232Z,2.05
2022-08-10T23:56:18.136Z,1.80
2022-08-10T23:58:50.764Z,2.05
